Kake, AK (99830)

2:59 AM AKDT on July 24, 2014 (GMT -0800)
Kake (PAFE) Elev 171 ft | 56.96 °N, 133.91 °W | Change Station

Current weather conditions updated 3 minutes ago

Overcast
Overcast
54 °F
Feels Like 54 °F
N
7
Wind Variable Wind from East

Today is forecast to be Cooler than yesterday. Showers possible.

Today
High -- | Low -- °F
--% Chance of Precip.
Yesterday
High -- | Low -- °F
Precip. -- in
4:39 AM 9:23 PM
Waning Crescent, 6% visible
Pressure 29.96 in
Visibility 10.0 miles
Clouds Overcast 10000 ft
Dew Point 48 °F
Humidity 82%
Rainfall 0.00 in
Snow Depth Not available.
UV 0 out of 12
Pollen Not available.
Air Quality Not available.
Flu Activity Not available.
METAR PAFE 241056Z AUTO 08006KT 10SM OVC100 12/09 A2996 RMK AO1

More Conditions Fewer Conditions

Pressure 29.96 in
Visibility 10.0 miles
Clouds Overcast 10000 ft
Dew Point 48 °F
Humidity 82%
Rainfall 0.00 in
Snow Depth Not available.
UV 0 out of 12
Pollen Not available.
Air Quality Not available.
Flu Activity Not available.
METAR PAFE 241056Z AUTO 08006KT 10SM OVC100 12/09 A2996 RMK AO1

More Conditions Fewer Conditions

10-Day Weather Forecast

Almanac

Astronomy

Jul. 24, 2014 Rise Set
Actual Time 4:39 AM AKDT 9:23 PM AKDT
Civil Twilight 3:45 AM AKDT 10:17 PM AKDT
Nautical Twilight 2:07 AM AKDT 11:52 PM AKDT
Astronomical Twilight Sun does not rise Sun does not rise
Moon 3:00 AM AKDT 7:35 PM AKDT
Length of Visible Light 18h 32m
Length of Day
16h 43m
Tomorrow will be 3m 42s shorter.
Waning Crescent, 6% of the Moon is Illuminated
Today
Waning Crescent
Jul 26
New
Aug 3
First Quarter
Aug 10
Full
Aug 17
Last Quarter

Today's Extremes

State Highs State Lows

Community

WunderPhotos

Upload Photos

1,736,966 photos uploaded!

Nearby

Snow Depth

Station Depth Elevation
Long Lake 0 in 820 ft
Upper Tsaina River 0 in 1750 ft
Moraine 0 in 2100 ft
Grandview 5 in 1100 ft
Grouse Creek Divide 0 in 700 ft

Earthquake Activity

City Distance Mag. Time & Date
No recent earthquake activity has been reported nearby.
Minimum magnitude displayed is 2.5.

Coastal Water Temperatures

Place Temperature
No Stations Reporting

Nearby Weather Stations

Station Location Temp. Dew Point Humidity Wind Precip. Elev Updated Type
RAWS KAKE AK, Kake, AK 50 °F 49 °F 98% North  at  0 mph 0.00 in / hr 399 ft 1:55 AM AKDT MADIS
MARITIME , Kake, AK 53 °F - - WSW  at  9 mph 0.00 in / hr 22 ft 2:00 AM AKDT MADIS

Show More Stations Show Fewer Stations